Alice International Airport Alice US
ICAO: KALI
IATA: ALI
Category: Medium
Scheduled Services: No

Elevation: 178 ft
TransAlt. 18000 ft.

Airport Communications:
KINGSVILLE APP:119.9
ASOS:119.225
KINGSVILLE DEP:119.9
SAN ANGELO RDO:122.6
CTAF/UNICOM:123

KALI Zoom In..

If you have problems with the map follow the link
https://www.worldairports.se/pages/airport.php?
ICAO=KALI

Runways:

(A) RW 13 length 5997 ft width 100 ft
LOC 109.30 / hdg 128

(B) RW 17 length 4490 ft width 100 ft
LOC 109.30 / hdg 173

(C) RW 31 length 5997 ft width 100 ft
LOC 109.30 / hdg 308

(D) RW 35 length 4490 ft width 100 ft
LOC 109.30 / hdg 353

Location; KALI
Day. 14 / Time. 17.53 Zulu
* Altimeter: 29.82
* Temperature: 31° c. 87.8°f.
* Wind from: 200° Speed 15 kn.
Dewpoint: 05° c.
Visibility: 10 Statute Miles.
Clouds: Clear (automated report).

KALI 141753Z AUTO 20015KT 10SM CLR 31/05 A2982 RMK AO2 SLP094 T03110050 10311 20083 58022


Wind From 200°
Speed 15 kn.

 
 
jpsmedia worldairports.se 2019   terms of use